sensor_id;sensor_type;location;lat;lon;timestamp;P1;durP1;ratioP1;P2;durP2;ratioP2
24873;SDS011;12945;42.648;23.370;2023-04-02T00:00:25;2.15;;;0.80;;
24873;SDS011;12945;42.648;23.370;2023-04-02T00:05:26;2.20;;;0.70;;
24873;SDS011;12945;42.648;23.370;2023-04-02T00:07:59;2.60;;;0.90;;
24873;SDS011;12945;42.648;23.370;2023-04-02T00:10:32;2.88;;;0.70;;
24873;SDS011;12945;42.648;23.370;2023-04-02T00:15:27;1.80;;;0.90;;
24873;SDS011;12945;42.648;23.370;2023-04-02T00:17:53;1.38;;;0.75;;
24873;SDS011;12945;42.648;23.370;2023-04-02T00:20:18;1.67;;;0.75;;
24873;SDS011;12945;42.648;23.370;2023-04-02T00:22:44;2.45;;;1.20;;
24873;SDS011;12945;42.648;23.370;2023-04-02T00:25:11;3.00;;;0.90;;
24873;SDS011;12945;42.648;23.370;2023-04-02T00:27:37;2.50;;;1.20;;
24873;SDS011;12945;42.648;23.370;2023-04-02T00:35:18;1.20;;;0.60;;
24873;SDS011;12945;42.648;23.370;2023-04-02T00:37:44;1.52;;;0.65;;
24873;SDS011;12945;42.648;23.370;2023-04-02T00:40:15;2.28;;;0.70;;
24873;SDS011;12945;42.648;23.370;2023-04-02T00:42:43;2.70;;;1.05;;
24873;SDS011;12945;42.648;23.370;2023-04-02T00:45:33;4.25;;;0.68;;
24873;SDS011;12945;42.648;23.370;2023-04-02T00:47:58;2.33;;;0.80;;
24873;SDS011;12945;42.648;23.370;2023-04-02T00:52:50;1.05;;;0.60;;
24873;SDS011;12945;42.648;23.370;2023-04-02T00:55:20;1.08;;;0.68;;
24873;SDS011;12945;42.648;23.370;2023-04-02T00:57:47;1.73;;;0.80;;
24873;SDS011;12945;42.648;23.370;2023-04-02T01:00:21;1.45;;;0.70;;
24873;SDS011;12945;42.648;23.370;2023-04-02T01:15:59;2.00;;;0.80;;
24873;SDS011;12945;42.648;23.370;2023-04-02T01:21:22;3.20;;;1.58;;
24873;SDS011;12945;42.648;23.370;2023-04-02T01:29:08;8.38;;;3.20;;
24873;SDS011;12945;42.648;23.370;2023-04-02T01:31:34;5.13;;;2.97;;
24873;SDS011;12945;42.648;23.370;2023-04-02T01:34:01;5.47;;;3.25;;
24873;SDS011;12945;42.648;23.370;2023-04-02T01:39:07;5.30;;;2.70;;
24873;SDS011;12945;42.648;23.370;2023-04-02T01:41:43;6.00;;;2.88;;
24873;SDS011;12945;42.648;23.370;2023-04-02T01:44:22;3.38;;;2.58;;
24873;SDS011;12945;42.648;23.370;2023-04-02T01:46:49;6.55;;;2.60;;
24873;SDS011;12945;42.648;23.370;2023-04-02T01:49:17;3.45;;;1.92;;
24873;SDS011;12945;42.648;23.370;2023-04-02T01:51:44;4.97;;;1.55;;
24873;SDS011;12945;42.648;23.370;2023-04-02T01:54:10;2.92;;;1.48;;
24873;SDS011;12945;42.648;23.370;2023-04-02T01:56:36;3.67;;;1.85;;
24873;SDS011;12945;42.648;23.370;2023-04-02T01:59:02;2.47;;;1.60;;
24873;SDS011;12945;42.648;23.370;2023-04-02T02:04:15;3.53;;;1.73;;
24873;SDS011;12945;42.648;23.370;2023-04-02T02:06:41;1.90;;;1.58;;
24873;SDS011;12945;42.648;23.370;2023-04-02T02:09:07;4.22;;;1.67;;
24873;SDS011;12945;42.648;23.370;2023-04-02T02:11:36;3.23;;;1.90;;
24873;SDS011;12945;42.648;23.370;2023-04-02T02:14:12;2.85;;;1.63;;
24873;SDS011;12945;42.648;23.370;2023-04-02T02:16:38;5.22;;;2.38;;
24873;SDS011;12945;42.648;23.370;2023-04-02T02:19:14;7.53;;;3.25;;
24873;SDS011;12945;42.648;23.370;2023-04-02T02:21:46;5.70;;;3.08;;
24873;SDS011;12945;42.648;23.370;2023-04-02T02:26:44;10.43;;;3.70;;
24873;SDS011;12945;42.648;23.370;2023-04-02T02:29:10;5.25;;;3.60;;
24873;SDS011;12945;42.648;23.370;2023-04-02T02:31:39;5.60;;;3.88;;
24873;SDS011;12945;42.648;23.370;2023-04-02T02:34:17;4.45;;;3.55;;
24873;SDS011;12945;42.648;23.370;2023-04-02T02:36:51;5.97;;;4.15;;
24873;SDS011;12945;42.648;23.370;2023-04-02T02:39:33;6.03;;;3.45;;
24873;SDS011;12945;42.648;23.370;2023-04-02T02:42:03;6.25;;;3.67;;
24873;SDS011;12945;42.648;23.370;2023-04-02T02:44:32;5.90;;;3.67;;
24873;SDS011;12945;42.648;23.370;2023-04-02T02:47:00;5.82;;;3.80;;
24873;SDS011;12945;42.648;23.370;2023-04-02T02:49:27;10.02;;;3.65;;
24873;SDS011;12945;42.648;23.370;2023-04-02T02:51:59;5.93;;;3.90;;
24873;SDS011;12945;42.648;23.370;2023-04-02T02:54:26;4.97;;;3.42;;
24873;SDS011;12945;42.648;23.370;2023-04-02T02:56:53;5.88;;;3.85;;
24873;SDS011;12945;42.648;23.370;2023-04-02T02:59:21;4.97;;;3.72;;
24873;SDS011;12945;42.648;23.370;2023-04-02T03:01:46;8.15;;;3.97;;
24873;SDS011;12945;42.648;23.370;2023-04-02T03:04:12;9.27;;;4.03;;
24873;SDS011;12945;42.648;23.370;2023-04-02T03:06:38;5.88;;;3.47;;
24873;SDS011;12945;42.648;23.370;2023-04-02T03:11:35;6.57;;;3.35;;
24873;SDS011;12945;42.648;23.370;2023-04-02T03:16:43;6.90;;;3.67;;
24873;SDS011;12945;42.648;23.370;2023-04-02T03:19:16;5.32;;;3.88;;
24873;SDS011;12945;42.648;23.370;2023-04-02T03:21:48;6.65;;;3.47;;
24873;SDS011;12945;42.648;23.370;2023-04-02T03:26:51;6.63;;;4.20;;
24873;SDS011;12945;42.648;23.370;2023-04-02T03:29:19;5.90;;;3.80;;
24873;SDS011;12945;42.648;23.370;2023-04-02T03:31:59;5.55;;;4.07;;
24873;SDS011;12945;42.648;23.370;2023-04-02T03:34:35;7.88;;;4.22;;
24873;SDS011;12945;42.648;23.370;2023-04-02T03:39:32;7.50;;;4.07;;
24873;SDS011;12945;42.648;23.370;2023-04-02T03:44:54;5.28;;;3.78;;
24873;SDS011;12945;42.648;23.370;2023-04-02T03:49:52;6.30;;;4.20;;
24873;SDS011;12945;42.648;23.370;2023-04-02T03:52:26;6.95;;;4.68;;
24873;SDS011;12945;42.648;23.370;2023-04-02T03:54:56;9.70;;;4.70;;
24873;SDS011;12945;42.648;23.370;2023-04-02T03:57:28;10.32;;;4.30;;
24873;SDS011;12945;42.648;23.370;2023-04-02T04:00:18;8.18;;;4.25;;
24873;SDS011;12945;42.648;23.370;2023-04-02T04:02:45;6.93;;;4.20;;
24873;SDS011;12945;42.648;23.370;2023-04-02T04:05:18;7.55;;;4.07;;
24873;SDS011;12945;42.648;23.370;2023-04-02T04:07:45;5.60;;;3.92;;
24873;SDS011;12945;42.648;23.370;2023-04-02T04:10:16;8.10;;;4.07;;
24873;SDS011;12945;42.648;23.370;2023-04-02T04:12:46;5.30;;;3.42;;
24873;SDS011;12945;42.648;23.370;2023-04-02T04:17:47;8.65;;;3.88;;
24873;SDS011;12945;42.648;23.370;2023-04-02T04:22:46;7.80;;;3.72;;
24873;SDS011;12945;42.648;23.370;2023-04-02T04:25:47;8.77;;;4.47;;
24873;SDS011;12945;42.648;23.370;2023-04-02T04:28:22;6.97;;;4.32;;
24873;SDS011;12945;42.648;23.370;2023-04-02T04:33:43;7.47;;;4.47;;
24873;SDS011;12945;42.648;23.370;2023-04-02T04:36:43;11.13;;;4.30;;
24873;SDS011;12945;42.648;23.370;2023-04-02T04:39:04;7.95;;;4.60;;
24873;SDS011;12945;42.648;23.370;2023-04-02T04:41:32;9.73;;;4.80;;
24873;SDS011;12945;42.648;23.370;2023-04-02T04:44:05;6.85;;;4.47;;
24873;SDS011;12945;42.648;23.370;2023-04-02T04:46:41;7.15;;;4.50;;
24873;SDS011;12945;42.648;23.370;2023-04-02T04:54:23;7.82;;;3.97;;
24873;SDS011;12945;42.648;23.370;2023-04-02T04:56:50;9.18;;;4.30;;
24873;SDS011;12945;42.648;23.370;2023-04-02T05:01:52;8.20;;;4.03;;
24873;SDS011;12945;42.648;23.370;2023-04-02T05:09:33;6.15;;;2.97;;
24873;SDS011;12945;42.648;23.370;2023-04-02T05:12:02;5.82;;;3.30;;
24873;SDS011;12945;42.648;23.370;2023-04-02T05:14:37;5.15;;;3.63;;
24873;SDS011;12945;42.648;23.370;2023-04-02T05:19:40;6.47;;;3.20;;
24873;SDS011;12945;42.648;23.370;2023-04-02T05:22:24;8.35;;;3.30;;
24873;SDS011;12945;42.648;23.370;2023-04-02T05:24:54;5.88;;;3.28;;
24873;SDS011;12945;42.648;23.370;2023-04-02T05:27:32;7.88;;;3.83;;
24873;SDS011;12945;42.648;23.370;2023-04-02T05:35:20;6.63;;;3.45;;
24873;SDS011;12945;42.648;23.370;2023-04-02T05:37:48;7.72;;;3.80;;
24873;SDS011;12945;42.648;23.370;2023-04-02T05:40:22;7.05;;;4.10;;
24873;SDS011;12945;42.648;23.370;2023-04-02T05:42:48;6.38;;;3.88;;
24873;SDS011;12945;42.648;23.370;2023-04-02T05:47:40;4.93;;;3.53;;
24873;SDS011;12945;42.648;23.370;2023-04-02T05:50:10;10.27;;;3.83;;
24873;SDS011;12945;42.648;23.370;2023-04-02T05:53:03;10.80;;;3.90;;
24873;SDS011;12945;42.648;23.370;2023-04-02T05:55:31;9.55;;;4.43;;
24873;SDS011;12945;42.648;23.370;2023-04-02T05:58:03;7.45;;;4.45;;
24873;SDS011;12945;42.648;23.370;2023-04-02T06:03:16;7.10;;;4.63;;
24873;SDS011;12945;42.648;23.370;2023-04-02T06:05:47;9.57;;;5.10;;
24873;SDS011;12945;42.648;23.370;2023-04-02T06:08:15;5.78;;;3.97;;
24873;SDS011;12945;42.648;23.370;2023-04-02T06:11:17;7.00;;;3.55;;
24873;SDS011;12945;42.648;23.370;2023-04-02T06:13:34;6.60;;;3.90;;
24873;SDS011;12945;42.648;23.370;2023-04-02T06:16:00;7.40;;;4.47;;
24873;SDS011;12945;42.648;23.370;2023-04-02T06:18:26;7.53;;;4.15;;
24873;SDS011;12945;42.648;23.370;2023-04-02T06:20:53;9.25;;;4.97;;
24873;SDS011;12945;42.648;23.370;2023-04-02T06:25:47;9.75;;;5.30;;
24873;SDS011;12945;42.648;23.370;2023-04-02T06:28:18;10.18;;;4.75;;
24873;SDS011;12945;42.648;23.370;2023-04-02T06:30:44;6.53;;;4.30;;
24873;SDS011;12945;42.648;23.370;2023-04-02T06:33:12;10.23;;;4.40;;
24873;SDS011;12945;42.648;23.370;2023-04-02T06:35:41;10.27;;;4.30;;
24873;SDS011;12945;42.648;23.370;2023-04-02T06:38:12;8.48;;;4.90;;
24873;SDS011;12945;42.648;23.370;2023-04-02T06:40:52;8.13;;;4.30;;
24873;SDS011;12945;42.648;23.370;2023-04-02T06:46:02;7.70;;;4.13;;
24873;SDS011;12945;42.648;23.370;2023-04-02T06:48:28;11.52;;;3.88;;
24873;SDS011;12945;42.648;23.370;2023-04-02T06:51:05;7.95;;;4.10;;
24873;SDS011;12945;42.648;23.370;2023-04-02T06:58:25;7.55;;;4.80;;
24873;SDS011;12945;42.648;23.370;2023-04-02T07:00:50;10.25;;;5.32;;
24873;SDS011;12945;42.648;23.370;2023-04-02T07:03:23;15.18;;;6.03;;
24873;SDS011;12945;42.648;23.370;2023-04-02T07:05:49;11.02;;;5.45;;
24873;SDS011;12945;42.648;23.370;2023-04-02T07:08:15;10.52;;;5.43;;
24873;SDS011;12945;42.648;23.370;2023-04-02T07:10:40;10.05;;;4.70;;
24873;SDS011;12945;42.648;23.370;2023-04-02T07:13:06;11.93;;;5.70;;
24873;SDS011;12945;42.648;23.370;2023-04-02T07:15:32;10.57;;;5.10;;
24873;SDS011;12945;42.648;23.370;2023-04-02T07:17:57;12.43;;;5.38;;
24873;SDS011;12945;42.648;23.370;2023-04-02T07:20:24;10.43;;;5.97;;
24873;SDS011;12945;42.648;23.370;2023-04-02T07:22:51;17.08;;;5.43;;
24873;SDS011;12945;42.648;23.370;2023-04-02T07:25:16;9.60;;;5.15;;
24873;SDS011;12945;42.648;23.370;2023-04-02T07:27:41;8.90;;;4.53;;
24873;SDS011;12945;42.648;23.370;2023-04-02T07:30:07;13.40;;;5.32;;
24873;SDS011;12945;42.648;23.370;2023-04-02T07:32:32;9.27;;;5.50;;
24873;SDS011;12945;42.648;23.370;2023-04-02T07:34:57;18.30;;;6.13;;
24873;SDS011;12945;42.648;23.370;2023-04-02T07:37:23;11.10;;;5.07;;
24873;SDS011;12945;42.648;23.370;2023-04-02T07:39:48;10.43;;;5.72;;
24873;SDS011;12945;42.648;23.370;2023-04-02T07:42:13;12.88;;;4.13;;
24873;SDS011;12945;42.648;23.370;2023-04-02T07:44:38;7.75;;;3.88;;
24873;SDS011;12945;42.648;23.370;2023-04-02T07:47:04;8.45;;;3.20;;
24873;SDS011;12945;42.648;23.370;2023-04-02T07:49:29;6.05;;;3.15;;
24873;SDS011;12945;42.648;23.370;2023-04-02T07:51:54;7.57;;;3.42;;
24873;SDS011;12945;42.648;23.370;2023-04-02T07:54:19;9.82;;;3.45;;
24873;SDS011;12945;42.648;23.370;2023-04-02T07:56:45;8.10;;;3.33;;
24873;SDS011;12945;42.648;23.370;2023-04-02T07:59:10;8.82;;;3.28;;
24873;SDS011;12945;42.648;23.370;2023-04-02T08:01:35;4.60;;;2.78;;
24873;SDS011;12945;42.648;23.370;2023-04-02T08:04:02;5.65;;;2.90;;
24873;SDS011;12945;42.648;23.370;2023-04-02T08:06:27;6.38;;;2.22;;
24873;SDS011;12945;42.648;23.370;2023-04-02T08:08:53;4.53;;;1.88;;
24873;SDS011;12945;42.648;23.370;2023-04-02T08:11:18;5.70;;;1.85;;
24873;SDS011;12945;42.648;23.370;2023-04-02T08:13:43;4.80;;;1.00;;
24873;SDS011;12945;42.648;23.370;2023-04-02T08:16:09;2.53;;;1.10;;
24873;SDS011;12945;42.648;23.370;2023-04-02T08:18:35;4.10;;;1.33;;
24873;SDS011;12945;42.648;23.370;2023-04-02T08:21:00;3.05;;;1.20;;
24873;SDS011;12945;42.648;23.370;2023-04-02T08:23:26;3.03;;;1.50;;
24873;SDS011;12945;42.648;23.370;2023-04-02T08:25:52;1.55;;;1.13;;
24873;SDS011;12945;42.648;23.370;2023-04-02T08:28:17;2.42;;;1.10;;
24873;SDS011;12945;42.648;23.370;2023-04-02T08:30:43;3.92;;;1.15;;
24873;SDS011;12945;42.648;23.370;2023-04-02T08:33:08;4.50;;;1.10;;
24873;SDS011;12945;42.648;23.370;2023-04-02T08:35:33;4.00;;;1.13;;
24873;SDS011;12945;42.648;23.370;2023-04-02T08:37:59;3.15;;;1.70;;
24873;SDS011;12945;42.648;23.370;2023-04-02T08:40:43;2.80;;;1.08;;
24873;SDS011;12945;42.648;23.370;2023-04-02T08:48:09;5.63;;;1.70;;
24873;SDS011;12945;42.648;23.370;2023-04-02T08:50:39;3.75;;;1.77;;
24873;SDS011;12945;42.648;23.370;2023-04-02T08:53:28;3.55;;;1.50;;
24873;SDS011;12945;42.648;23.370;2023-04-02T08:55:59;3.95;;;1.45;;
24873;SDS011;12945;42.648;23.370;2023-04-02T08:58:42;5.00;;;1.67;;
24873;SDS011;12945;42.648;23.370;2023-04-02T09:03:40;2.40;;;1.30;;
24873;SDS011;12945;42.648;23.370;2023-04-02T09:06:07;2.53;;;0.98;;
24873;SDS011;12945;42.648;23.370;2023-04-02T09:08:36;1.80;;;0.98;;
24873;SDS011;12945;42.648;23.370;2023-04-02T09:11:27;4.15;;;2.13;;
24873;SDS011;12945;42.648;23.370;2023-04-02T09:13:58;3.50;;;1.30;;
24873;SDS011;12945;42.648;23.370;2023-04-02T09:19:22;1.77;;;1.00;;
24873;SDS011;12945;42.648;23.370;2023-04-02T09:24:27;5.50;;;1.70;;
24873;SDS011;12945;42.648;23.370;2023-04-02T09:26:53;3.42;;;1.02;;
24873;SDS011;12945;42.648;23.370;2023-04-02T09:29:41;2.78;;;0.90;;
24873;SDS011;12945;42.648;23.370;2023-04-02T09:34:33;3.00;;;1.10;;
24873;SDS011;12945;42.648;23.370;2023-04-02T09:37:15;1.92;;;0.70;;
24873;SDS011;12945;42.648;23.370;2023-04-02T09:39:41;1.05;;;0.70;;
24873;SDS011;12945;42.648;23.370;2023-04-02T09:42:07;2.97;;;1.25;;
24873;SDS011;12945;42.648;23.370;2023-04-02T09:44:50;5.65;;;0.90;;
24873;SDS011;12945;42.648;23.370;2023-04-02T09:47:22;1.42;;;0.80;;
24873;SDS011;12945;42.648;23.370;2023-04-02T09:49:48;5.47;;;0.95;;
24873;SDS011;12945;42.648;23.370;2023-04-02T09:52:17;4.57;;;1.20;;
24873;SDS011;12945;42.648;23.370;2023-04-02T09:54:43;1.27;;;0.80;;
24873;SDS011;12945;42.648;23.370;2023-04-02T09:57:42;1.70;;;0.90;;
24873;SDS011;12945;42.648;23.370;2023-04-02T10:00:09;1.60;;;0.82;;
24873;SDS011;12945;42.648;23.370;2023-04-02T10:02:36;2.47;;;0.70;;
24873;SDS011;12945;42.648;23.370;2023-04-02T10:05:02;2.45;;;0.90;;
24873;SDS011;12945;42.648;23.370;2023-04-02T10:07:38;4.82;;;1.35;;
24873;SDS011;12945;42.648;23.370;2023-04-02T10:12:43;1.73;;;1.10;;
24873;SDS011;12945;42.648;23.370;2023-04-02T10:15:17;1.23;;;0.85;;
24873;SDS011;12945;42.648;23.370;2023-04-02T10:17:44;7.68;;;1.27;;
24873;SDS011;12945;42.648;23.370;2023-04-02T10:20:18;2.67;;;1.75;;
24873;SDS011;12945;42.648;23.370;2023-04-02T10:22:46;1.65;;;1.17;;
24873;SDS011;12945;42.648;23.370;2023-04-02T10:25:12;1.00;;;0.77;;
24873;SDS011;12945;42.648;23.370;2023-04-02T10:33:14;1.95;;;0.70;;
24873;SDS011;12945;42.648;23.370;2023-04-02T10:35:51;1.08;;;0.70;;
24873;SDS011;12945;42.648;23.370;2023-04-02T10:41:21;3.00;;;1.08;;
24873;SDS011;12945;42.648;23.370;2023-04-02T10:48:53;3.47;;;1.00;;
24873;SDS011;12945;42.648;23.370;2023-04-02T10:56:37;2.55;;;0.95;;
24873;SDS011;12945;42.648;23.370;2023-04-02T10:59:04;1.65;;;0.90;;
24873;SDS011;12945;42.648;23.370;2023-04-02T11:01:32;1.60;;;0.90;;
24873;SDS011;12945;42.648;23.370;2023-04-02T11:03:59;1.05;;;0.70;;
24873;SDS011;12945;42.648;23.370;2023-04-02T11:09:18;1.25;;;0.70;;
24873;SDS011;12945;42.648;23.370;2023-04-02T11:11:44;2.45;;;0.82;;
24873;SDS011;12945;42.648;23.370;2023-04-02T11:14:26;3.38;;;1.10;;
24873;SDS011;12945;42.648;23.370;2023-04-02T11:16:52;3.27;;;1.10;;
24873;SDS011;12945;42.648;23.370;2023-04-02T11:27:04;2.13;;;0.90;;
24873;SDS011;12945;42.648;23.370;2023-04-02T11:29:30;2.97;;;0.82;;
24873;SDS011;12945;42.648;23.370;2023-04-02T11:32:13;7.97;;;1.10;;
24873;SDS011;12945;42.648;23.370;2023-04-02T11:39:57;2.03;;;1.02;;
24873;SDS011;12945;42.648;23.370;2023-04-02T11:42:33;0.85;;;0.73;;
24873;SDS011;12945;42.648;23.370;2023-04-02T11:45:00;1.58;;;0.73;;
24873;SDS011;12945;42.648;23.370;2023-04-02T11:47:26;2.05;;;0.80;;
24873;SDS011;12945;42.648;23.370;2023-04-02T11:49:56;1.00;;;0.70;;
24873;SDS011;12945;42.648;23.370;2023-04-02T11:52:22;0.88;;;0.60;;
24873;SDS011;12945;42.648;23.370;2023-04-02T11:54:55;3.10;;;1.10;;
24873;SDS011;12945;42.648;23.370;2023-04-02T12:05:22;2.55;;;1.00;;
24873;SDS011;12945;42.648;23.370;2023-04-02T12:10:47;1.45;;;0.85;;
24873;SDS011;12945;42.648;23.370;2023-04-02T12:13:25;5.00;;;1.20;;
24873;SDS011;12945;42.648;23.370;2023-04-02T12:16:11;1.10;;;0.85;;
24873;SDS011;12945;42.648;23.370;2023-04-02T12:18:46;1.30;;;0.70;;
24873;SDS011;12945;42.648;23.370;2023-04-02T12:21:19;2.22;;;0.85;;
24873;SDS011;12945;42.648;23.370;2023-04-02T12:23:45;1.65;;;0.80;;
24873;SDS011;12945;42.648;23.370;2023-04-02T12:28:54;3.13;;;0.80;;
24873;SDS011;12945;42.648;23.370;2023-04-02T12:31:20;2.00;;;0.73;;
24873;SDS011;12945;42.648;23.370;2023-04-02T12:33:52;2.35;;;0.90;;
24873;SDS011;12945;42.648;23.370;2023-04-02T12:36:21;2.05;;;0.82;;
24873;SDS011;12945;42.648;23.370;2023-04-02T12:38:54;2.60;;;0.80;;
24873;SDS011;12945;42.648;23.370;2023-04-02T12:41:27;1.73;;;0.60;;
24873;SDS011;12945;42.648;23.370;2023-04-02T12:43:58;0.70;;;0.60;;
24873;SDS011;12945;42.648;23.370;2023-04-02T12:46:23;2.55;;;1.00;;
24873;SDS011;12945;42.648;23.370;2023-04-02T12:48:50;3.78;;;0.88;;
24873;SDS011;12945;42.648;23.370;2023-04-02T12:51:16;0.80;;;0.52;;
24873;SDS011;12945;42.648;23.370;2023-04-02T12:53:41;1.33;;;0.70;;
24873;SDS011;12945;42.648;23.370;2023-04-02T12:56:07;1.35;;;0.70;;
24873;SDS011;12945;42.648;23.370;2023-04-02T12:58:42;1.20;;;0.70;;
24873;SDS011;12945;42.648;23.370;2023-04-02T13:01:11;3.80;;;0.68;;
24873;SDS011;12945;42.648;23.370;2023-04-02T13:03:37;1.75;;;0.60;;
24873;SDS011;12945;42.648;23.370;2023-04-02T13:06:02;1.20;;;0.80;;
24873;SDS011;12945;42.648;23.370;2023-04-02T13:08:29;2.08;;;0.88;;
24873;SDS011;12945;42.648;23.370;2023-04-02T13:10:58;0.82;;;0.70;;
24873;SDS011;12945;42.648;23.370;2023-04-02T13:13:25;1.25;;;0.80;;
24873;SDS011;12945;42.648;23.370;2023-04-02T13:18:36;1.20;;;0.73;;
24873;SDS011;12945;42.648;23.370;2023-04-02T13:21:02;0.90;;;0.70;;
24873;SDS011;12945;42.648;23.370;2023-04-02T13:25:54;6.07;;;0.88;;
24873;SDS011;12945;42.648;23.370;2023-04-02T13:28:19;2.15;;;1.10;;
24873;SDS011;12945;42.648;23.370;2023-04-02T13:30:45;1.40;;;0.88;;
24873;SDS011;12945;42.648;23.370;2023-04-02T13:33:11;1.08;;;0.68;;
24873;SDS011;12945;42.648;23.370;2023-04-02T13:35:37;1.83;;;1.33;;
24873;SDS011;12945;42.648;23.370;2023-04-02T13:38:02;2.65;;;0.90;;
24873;SDS011;12945;42.648;23.370;2023-04-02T13:40:29;2.42;;;0.65;;
24873;SDS011;12945;42.648;23.370;2023-04-02T13:42:55;4.18;;;1.27;;
24873;SDS011;12945;42.648;23.370;2023-04-02T13:45:22;1.73;;;1.00;;
24873;SDS011;12945;42.648;23.370;2023-04-02T13:47:48;2.38;;;0.82;;
24873;SDS011;12945;42.648;23.370;2023-04-02T13:50:20;2.17;;;0.80;;
24873;SDS011;12945;42.648;23.370;2023-04-02T13:52:49;2.03;;;0.80;;
24873;SDS011;12945;42.648;23.370;2023-04-02T13:55:15;1.75;;;0.77;;
24873;SDS011;12945;42.648;23.370;2023-04-02T13:57:41;1.52;;;0.73;;
24873;SDS011;12945;42.648;23.370;2023-04-02T14:00:08;1.92;;;0.80;;
24873;SDS011;12945;42.648;23.370;2023-04-02T14:02:34;3.20;;;0.70;;
24873;SDS011;12945;42.648;23.370;2023-04-02T14:05:26;8.68;;;0.70;;
24873;SDS011;12945;42.648;23.370;2023-04-02T14:08:00;2.00;;;0.95;;
24873;SDS011;12945;42.648;23.370;2023-04-02T14:15:46;1.00;;;0.60;;
24873;SDS011;12945;42.648;23.370;2023-04-02T14:18:32;1.42;;;0.70;;
24873;SDS011;12945;42.648;23.370;2023-04-02T14:21:17;1.80;;;0.63;;
24873;SDS011;12945;42.648;23.370;2023-04-02T14:31:21;2.30;;;0.93;;
24873;SDS011;12945;42.648;23.370;2023-04-02T14:36:33;2.22;;;0.70;;
24873;SDS011;12945;42.648;23.370;2023-04-02T14:44:12;2.00;;;0.80;;
24873;SDS011;12945;42.648;23.370;2023-04-02T14:46:39;2.10;;;0.80;;
24873;SDS011;12945;42.648;23.370;2023-04-02T14:49:12;1.23;;;0.90;;
24873;SDS011;12945;42.648;23.370;2023-04-02T14:51:46;1.10;;;0.73;;
24873;SDS011;12945;42.648;23.370;2023-04-02T14:56:49;1.73;;;0.80;;
24873;SDS011;12945;42.648;23.370;2023-04-02T14:59:24;2.13;;;0.90;;
24873;SDS011;12945;42.648;23.370;2023-04-02T15:01:53;1.60;;;0.98;;
24873;SDS011;12945;42.648;23.370;2023-04-02T15:04:42;3.15;;;0.80;;
24873;SDS011;12945;42.648;23.370;2023-04-02T15:07:17;1.50;;;0.80;;
24873;SDS011;12945;42.648;23.370;2023-04-02T15:09:45;1.20;;;0.80;;
24873;SDS011;12945;42.648;23.370;2023-04-02T15:12:18;5.13;;;0.90;;
24873;SDS011;12945;42.648;23.370;2023-04-02T15:14:57;1.52;;;0.98;;
24873;SDS011;12945;42.648;23.370;2023-04-02T15:19:51;5.15;;;1.15;;
24873;SDS011;12945;42.648;23.370;2023-04-02T15:32:17;2.47;;;1.38;;
24873;SDS011;12945;42.648;23.370;2023-04-02T15:34:47;1.98;;;1.00;;
24873;SDS011;12945;42.648;23.370;2023-04-02T15:37:22;3.08;;;0.80;;
24873;SDS011;12945;42.648;23.370;2023-04-02T15:40:13;1.55;;;1.00;;
24873;SDS011;12945;42.648;23.370;2023-04-02T15:45:47;1.67;;;1.00;;
24873;SDS011;12945;42.648;23.370;2023-04-02T15:50:43;2.03;;;0.80;;
24873;SDS011;12945;42.648;23.370;2023-04-02T15:55:39;4.25;;;0.90;;
24873;SDS011;12945;42.648;23.370;2023-04-02T16:03:35;1.38;;;1.08;;
24873;SDS011;12945;42.648;23.370;2023-04-02T16:11:17;1.98;;;1.00;;
24873;SDS011;12945;42.648;23.370;2023-04-02T16:13:42;1.75;;;0.93;;
24873;SDS011;12945;42.648;23.370;2023-04-02T16:16:15;2.42;;;1.10;;
24873;SDS011;12945;42.648;23.370;2023-04-02T16:21:13;3.17;;;1.10;;
24873;SDS011;12945;42.648;23.370;2023-04-02T16:23:39;5.40;;;2.38;;
24873;SDS011;12945;42.648;23.370;2023-04-02T16:31:49;2.03;;;1.00;;
24873;SDS011;12945;42.648;23.370;2023-04-02T16:44:30;2.08;;;1.27;;
24873;SDS011;12945;42.648;23.370;2023-04-02T16:47:00;6.50;;;1.85;;
24873;SDS011;12945;42.648;23.370;2023-04-02T16:50:02;5.20;;;1.60;;
24873;SDS011;12945;42.648;23.370;2023-04-02T16:57:30;9.93;;;1.75;;
24873;SDS011;12945;42.648;23.370;2023-04-02T17:08:22;9.65;;;2.55;;
24873;SDS011;12945;42.648;23.370;2023-04-02T17:10:54;8.15;;;2.80;;
24873;SDS011;12945;42.648;23.370;2023-04-02T17:18:35;7.30;;;2.97;;
24873;SDS011;12945;42.648;23.370;2023-04-02T17:21:04;4.68;;;2.90;;
24873;SDS011;12945;42.648;23.370;2023-04-02T17:23:30;9.30;;;3.28;;
24873;SDS011;12945;42.648;23.370;2023-04-02T17:25:57;6.85;;;2.63;;
24873;SDS011;12945;42.648;23.370;2023-04-02T17:28:30;5.10;;;2.47;;
24873;SDS011;12945;42.648;23.370;2023-04-02T17:31:00;6.95;;;3.30;;
24873;SDS011;12945;42.648;23.370;2023-04-02T17:33:27;10.80;;;5.68;;
24873;SDS011;12945;42.648;23.370;2023-04-02T17:38:43;7.13;;;3.78;;
24873;SDS011;12945;42.648;23.370;2023-04-02T17:41:18;11.35;;;4.20;;
24873;SDS011;12945;42.648;23.370;2023-04-02T17:43:49;6.72;;;3.88;;
24873;SDS011;12945;42.648;23.370;2023-04-02T17:48:50;9.13;;;5.28;;
24873;SDS011;12945;42.648;23.370;2023-04-02T17:54:07;8.77;;;4.05;;
24873;SDS011;12945;42.648;23.370;2023-04-02T18:01:45;7.50;;;3.50;;
24873;SDS011;12945;42.648;23.370;2023-04-02T18:23:59;9.13;;;4.00;;
24873;SDS011;12945;42.648;23.370;2023-04-02T18:32:04;7.47;;;3.78;;
24873;SDS011;12945;42.648;23.370;2023-04-02T18:42:28;7.80;;;3.72;;
24873;SDS011;12945;42.648;23.370;2023-04-02T18:45:10;3.63;;;2.40;;
24873;SDS011;12945;42.648;23.370;2023-04-02T18:52:34;12.35;;;3.22;;
24873;SDS011;12945;42.648;23.370;2023-04-02T18:55:04;5.70;;;3.30;;
24873;SDS011;12945;42.648;23.370;2023-04-02T18:57:33;4.35;;;2.70;;
24873;SDS011;12945;42.648;23.370;2023-04-02T19:02:37;7.10;;;2.95;;
24873;SDS011;12945;42.648;23.370;2023-04-02T19:05:52;9.30;;;2.88;;
24873;SDS011;12945;42.648;23.370;2023-04-02T19:07:52;5.88;;;3.20;;
24873;SDS011;12945;42.648;23.370;2023-04-02T19:10:30;8.75;;;3.65;;
24873;SDS011;12945;42.648;23.370;2023-04-02T19:12:55;6.20;;;3.17;;
24873;SDS011;12945;42.648;23.370;2023-04-02T19:15:21;6.13;;;2.75;;
24873;SDS011;12945;42.648;23.370;2023-04-02T19:17:52;9.38;;;2.95;;
24873;SDS011;12945;42.648;23.370;2023-04-02T19:20:40;8.30;;;2.97;;
24873;SDS011;12945;42.648;23.370;2023-04-02T19:23:23;8.55;;;3.15;;
24873;SDS011;12945;42.648;23.370;2023-04-02T19:26:00;9.38;;;3.65;;
24873;SDS011;12945;42.648;23.370;2023-04-02T19:28:30;5.57;;;3.08;;
24873;SDS011;12945;42.648;23.370;2023-04-02T19:43:46;4.90;;;2.40;;
24873;SDS011;12945;42.648;23.370;2023-04-02T19:46:11;5.47;;;2.58;;
24873;SDS011;12945;42.648;23.370;2023-04-02T19:51:05;5.22;;;2.67;;
24873;SDS011;12945;42.648;23.370;2023-04-02T19:53:30;7.47;;;2.92;;
24873;SDS011;12945;42.648;23.370;2023-04-02T19:55:57;6.15;;;2.65;;
24873;SDS011;12945;42.648;23.370;2023-04-02T19:58:32;10.68;;;2.45;;
24873;SDS011;12945;42.648;23.370;2023-04-02T20:00:58;5.28;;;2.40;;
24873;SDS011;12945;42.648;23.370;2023-04-02T20:03:23;8.90;;;2.65;;
24873;SDS011;12945;42.648;23.370;2023-04-02T20:05:49;4.88;;;2.45;;
24873;SDS011;12945;42.648;23.370;2023-04-02T20:08:15;7.40;;;2.60;;
24873;SDS011;12945;42.648;23.370;2023-04-02T20:10:40;8.18;;;2.67;;
24873;SDS011;12945;42.648;23.370;2023-04-02T20:13:06;7.80;;;2.60;;
24873;SDS011;12945;42.648;23.370;2023-04-02T20:15:32;6.07;;;2.92;;
24873;SDS011;12945;42.648;23.370;2023-04-02T20:17:57;5.03;;;2.80;;
24873;SDS011;12945;42.648;23.370;2023-04-02T20:20:22;6.70;;;2.63;;
24873;SDS011;12945;42.648;23.370;2023-04-02T20:22:48;6.13;;;2.60;;